sensor_id;sensor_type;location;lat;lon;timestamp;P1;durP1;ratioP1;P2;durP2;ratioP2
72132;SDS011;60008;50.826;6.896;2023-04-25T00:01:00;7.93;;;2.10;;
72132;SDS011;60008;50.826;6.896;2023-04-25T00:03:44;6.63;;;2.05;;
72132;SDS011;60008;50.826;6.896;2023-04-25T00:06:31;9.83;;;2.10;;
72132;SDS011;60008;50.826;6.896;2023-04-25T00:09:17;7.82;;;2.05;;
72132;SDS011;60008;50.826;6.896;2023-04-25T00:12:02;7.75;;;1.85;;
72132;SDS011;60008;50.826;6.896;2023-04-25T00:14:47;5.28;;;1.60;;
72132;SDS011;60008;50.826;6.896;2023-04-25T00:17:34;7.95;;;1.95;;
72132;SDS011;60008;50.826;6.896;2023-04-25T00:20:19;10.37;;;2.03;;
72132;SDS011;60008;50.826;6.896;2023-04-25T00:23:05;10.90;;;2.45;;
72132;SDS011;60008;50.826;6.896;2023-04-25T00:25:49;7.25;;;1.80;;
72132;SDS011;60008;50.826;6.896;2023-04-25T00:28:35;10.93;;;2.28;;
72132;SDS011;60008;50.826;6.896;2023-04-25T00:31:19;11.15;;;2.25;;
72132;SDS011;60008;50.826;6.896;2023-04-25T00:34:05;8.37;;;2.10;;
72132;SDS011;60008;50.826;6.896;2023-04-25T00:36:51;7.85;;;2.10;;
72132;SDS011;60008;50.826;6.896;2023-04-25T00:39:37;10.00;;;2.22;;
72132;SDS011;60008;50.826;6.896;2023-04-25T00:42:21;8.48;;;1.98;;
72132;SDS011;60008;50.826;6.896;2023-04-25T00:45:06;11.98;;;2.40;;
72132;SDS011;60008;50.826;6.896;2023-04-25T00:47:57;9.23;;;2.20;;
72132;SDS011;60008;50.826;6.896;2023-04-25T00:50:42;7.85;;;2.08;;
72132;SDS011;60008;50.826;6.896;2023-04-25T00:53:34;6.30;;;2.08;;
72132;SDS011;60008;50.826;6.896;2023-04-25T00:56:19;12.13;;;2.08;;
72132;SDS011;60008;50.826;6.896;2023-04-25T00:59:05;12.98;;;2.33;;
72132;SDS011;60008;50.826;6.896;2023-04-25T01:01:51;5.90;;;2.10;;
72132;SDS011;60008;50.826;6.896;2023-04-25T01:04:36;8.00;;;2.17;;
72132;SDS011;60008;50.826;6.896;2023-04-25T01:07:21;9.00;;;2.17;;
72132;SDS011;60008;50.826;6.896;2023-04-25T01:10:06;7.68;;;2.33;;
72132;SDS011;60008;50.826;6.896;2023-04-25T01:12:52;10.82;;;2.38;;
72132;SDS011;60008;50.826;6.896;2023-04-25T01:15:37;13.43;;;2.47;;
72132;SDS011;60008;50.826;6.896;2023-04-25T01:18:22;10.32;;;2.42;;
72132;SDS011;60008;50.826;6.896;2023-04-25T01:21:11;11.18;;;2.40;;
72132;SDS011;60008;50.826;6.896;2023-04-25T01:23:57;11.25;;;2.53;;
72132;SDS011;60008;50.826;6.896;2023-04-25T01:26:43;10.27;;;2.33;;
72132;SDS011;60008;50.826;6.896;2023-04-25T01:29:36;9.33;;;2.17;;
72132;SDS011;60008;50.826;6.896;2023-04-25T01:32:22;9.70;;;2.13;;
72132;SDS011;60008;50.826;6.896;2023-04-25T01:35:10;10.48;;;2.22;;
72132;SDS011;60008;50.826;6.896;2023-04-25T01:37:56;7.47;;;2.15;;
72132;SDS011;60008;50.826;6.896;2023-04-25T01:40:41;9.93;;;2.10;;
72132;SDS011;60008;50.826;6.896;2023-04-25T01:43:26;13.27;;;3.00;;
72132;SDS011;60008;50.826;6.896;2023-04-25T01:46:11;6.43;;;2.20;;
72132;SDS011;60008;50.826;6.896;2023-04-25T01:48:57;13.02;;;2.72;;
72132;SDS011;60008;50.826;6.896;2023-04-25T01:51:42;8.27;;;2.30;;
72132;SDS011;60008;50.826;6.896;2023-04-25T01:54:28;9.65;;;2.10;;
72132;SDS011;60008;50.826;6.896;2023-04-25T01:57:13;16.30;;;2.47;;
72132;SDS011;60008;50.826;6.896;2023-04-25T01:59:59;9.00;;;2.20;;
72132;SDS011;60008;50.826;6.896;2023-04-25T02:02:47;10.27;;;2.50;;
72132;SDS011;60008;50.826;6.896;2023-04-25T02:05:39;10.32;;;2.45;;
72132;SDS011;60008;50.826;6.896;2023-04-25T02:08:24;10.50;;;2.13;;
72132;SDS011;60008;50.826;6.896;2023-04-25T02:11:11;11.37;;;2.90;;
72132;SDS011;60008;50.826;6.896;2023-04-25T02:13:56;15.85;;;2.47;;
72132;SDS011;60008;50.826;6.896;2023-04-25T02:16:41;10.40;;;2.78;;
72132;SDS011;60008;50.826;6.896;2023-04-25T02:19:28;10.15;;;2.60;;
72132;SDS011;60008;50.826;6.896;2023-04-25T02:22:13;9.80;;;2.42;;
72132;SDS011;60008;50.826;6.896;2023-04-25T02:24:58;9.07;;;2.57;;
72132;SDS011;60008;50.826;6.896;2023-04-25T02:27:43;11.23;;;2.72;;
72132;SDS011;60008;50.826;6.896;2023-04-25T02:30:28;10.60;;;2.35;;
72132;SDS011;60008;50.826;6.896;2023-04-25T02:33:13;13.45;;;2.58;;
72132;SDS011;60008;50.826;6.896;2023-04-25T02:35:58;8.13;;;2.40;;
72132;SDS011;60008;50.826;6.896;2023-04-25T02:38:42;11.00;;;2.33;;
72132;SDS011;60008;50.826;6.896;2023-04-25T02:41:28;5.82;;;2.13;;
72132;SDS011;60008;50.826;6.896;2023-04-25T02:44:13;10.48;;;2.90;;
72132;SDS011;60008;50.826;6.896;2023-04-25T02:46:58;6.97;;;2.35;;
72132;SDS011;60008;50.826;6.896;2023-04-25T02:49:43;9.80;;;2.42;;
72132;SDS011;60008;50.826;6.896;2023-04-25T02:52:28;11.63;;;2.50;;
72132;SDS011;60008;50.826;6.896;2023-04-25T02:55:13;6.93;;;2.22;;
72132;SDS011;60008;50.826;6.896;2023-04-25T02:57:58;10.90;;;2.33;;
72132;SDS011;60008;50.826;6.896;2023-04-25T03:00:43;10.40;;;2.50;;
72132;SDS011;60008;50.826;6.896;2023-04-25T03:03:28;11.48;;;3.05;;
72132;SDS011;60008;50.826;6.896;2023-04-25T03:06:13;9.47;;;2.23;;
72132;SDS011;60008;50.826;6.896;2023-04-25T03:08:59;7.60;;;2.50;;
72132;SDS011;60008;50.826;6.896;2023-04-25T03:11:45;11.48;;;2.75;;
72132;SDS011;60008;50.826;6.896;2023-04-25T03:14:30;14.65;;;2.60;;
72132;SDS011;60008;50.826;6.896;2023-04-25T03:17:15;10.50;;;2.65;;
72132;SDS011;60008;50.826;6.896;2023-04-25T03:20:00;9.07;;;2.13;;
72132;SDS011;60008;50.826;6.896;2023-04-25T03:22:45;7.97;;;2.42;;
72132;SDS011;60008;50.826;6.896;2023-04-25T03:25:30;12.25;;;2.78;;
72132;SDS011;60008;50.826;6.896;2023-04-25T03:28:16;12.02;;;2.85;;
72132;SDS011;60008;50.826;6.896;2023-04-25T03:31:01;9.15;;;2.20;;
72132;SDS011;60008;50.826;6.896;2023-04-25T03:33:46;11.13;;;2.70;;
72132;SDS011;60008;50.826;6.896;2023-04-25T03:36:31;10.10;;;2.38;;
72132;SDS011;60008;50.826;6.896;2023-04-25T03:39:17;12.07;;;3.03;;
72132;SDS011;60008;50.826;6.896;2023-04-25T03:42:02;12.75;;;2.60;;
72132;SDS011;60008;50.826;6.896;2023-04-25T03:44:48;12.30;;;2.75;;
72132;SDS011;60008;50.826;6.896;2023-04-25T03:47:33;11.80;;;3.10;;
72132;SDS011;60008;50.826;6.896;2023-04-25T03:50:18;11.43;;;2.47;;
72132;SDS011;60008;50.826;6.896;2023-04-25T03:53:03;11.23;;;3.00;;
72132;SDS011;60008;50.826;6.896;2023-04-25T03:55:48;10.00;;;3.05;;
72132;SDS011;60008;50.826;6.896;2023-04-25T03:58:33;10.68;;;2.75;;
72132;SDS011;60008;50.826;6.896;2023-04-25T04:01:18;12.67;;;2.87;;
72132;SDS011;60008;50.826;6.896;2023-04-25T04:04:03;9.05;;;2.78;;
72132;SDS011;60008;50.826;6.896;2023-04-25T04:06:49;12.55;;;3.05;;
72132;SDS011;60008;50.826;6.896;2023-04-25T04:09:35;10.02;;;2.53;;
72132;SDS011;60008;50.826;6.896;2023-04-25T04:12:20;10.63;;;3.30;;
72132;SDS011;60008;50.826;6.896;2023-04-25T04:15:05;8.97;;;2.73;;
72132;SDS011;60008;50.826;6.896;2023-04-25T04:17:51;10.77;;;2.92;;
72132;SDS011;60008;50.826;6.896;2023-04-25T04:20:36;9.75;;;3.20;;
72132;SDS011;60008;50.826;6.896;2023-04-25T04:23:21;9.55;;;2.92;;
72132;SDS011;60008;50.826;6.896;2023-04-25T04:26:07;11.52;;;2.70;;
72132;SDS011;60008;50.826;6.896;2023-04-25T04:28:53;9.77;;;3.00;;
72132;SDS011;60008;50.826;6.896;2023-04-25T04:31:39;9.68;;;2.92;;
72132;SDS011;60008;50.826;6.896;2023-04-25T04:34:23;10.45;;;3.28;;
72132;SDS011;60008;50.826;6.896;2023-04-25T04:37:10;9.63;;;2.72;;
72132;SDS011;60008;50.826;6.896;2023-04-25T04:39:57;11.40;;;2.85;;
72132;SDS011;60008;50.826;6.896;2023-04-25T04:42:42;10.17;;;2.97;;
72132;SDS011;60008;50.826;6.896;2023-04-25T04:45:28;10.88;;;2.90;;
72132;SDS011;60008;50.826;6.896;2023-04-25T04:48:13;12.73;;;3.03;;
72132;SDS011;60008;50.826;6.896;2023-04-25T04:50:58;10.05;;;2.63;;
72132;SDS011;60008;50.826;6.896;2023-04-25T04:53:43;9.57;;;2.88;;
72132;SDS011;60008;50.826;6.896;2023-04-25T04:56:29;7.97;;;2.23;;
72132;SDS011;60008;50.826;6.896;2023-04-25T04:59:17;11.35;;;3.20;;
72132;SDS011;60008;50.826;6.896;2023-04-25T05:02:02;11.30;;;3.28;;
72132;SDS011;60008;50.826;6.896;2023-04-25T05:04:47;7.88;;;2.63;;
72132;SDS011;60008;50.826;6.896;2023-04-25T05:07:32;10.73;;;2.83;;
72132;SDS011;60008;50.826;6.896;2023-04-25T05:10:18;13.70;;;3.13;;
72132;SDS011;60008;50.826;6.896;2023-04-25T05:13:03;13.18;;;3.08;;
72132;SDS011;60008;50.826;6.896;2023-04-25T05:15:48;12.63;;;3.10;;
72132;SDS011;60008;50.826;6.896;2023-04-25T05:18:33;11.70;;;3.05;;
72132;SDS011;60008;50.826;6.896;2023-04-25T05:21:18;11.13;;;3.03;;
72132;SDS011;60008;50.826;6.896;2023-04-25T05:24:04;14.93;;;2.90;;
72132;SDS011;60008;50.826;6.896;2023-04-25T05:26:49;11.73;;;2.95;;
72132;SDS011;60008;50.826;6.896;2023-04-25T05:29:34;11.25;;;3.65;;
72132;SDS011;60008;50.826;6.896;2023-04-25T05:32:19;12.90;;;2.65;;
72132;SDS011;60008;50.826;6.896;2023-04-25T05:35:04;11.07;;;3.00;;
72132;SDS011;60008;50.826;6.896;2023-04-25T05:37:51;13.00;;;2.60;;
72132;SDS011;60008;50.826;6.896;2023-04-25T05:40:37;11.32;;;2.88;;
72132;SDS011;60008;50.826;6.896;2023-04-25T05:43:22;9.32;;;2.83;;
72132;SDS011;60008;50.826;6.896;2023-04-25T05:46:07;14.77;;;3.35;;
72132;SDS011;60008;50.826;6.896;2023-04-25T05:48:52;11.50;;;3.10;;
72132;SDS011;60008;50.826;6.896;2023-04-25T05:51:37;9.77;;;3.10;;
72132;SDS011;60008;50.826;6.896;2023-04-25T05:54:21;16.95;;;3.40;;
72132;SDS011;60008;50.826;6.896;2023-04-25T05:57:06;10.88;;;2.70;;
72132;SDS011;60008;50.826;6.896;2023-04-25T05:59:51;15.93;;;2.95;;
72132;SDS011;60008;50.826;6.896;2023-04-25T06:02:37;20.80;;;3.25;;
72132;SDS011;60008;50.826;6.896;2023-04-25T06:05:22;9.37;;;3.23;;
72132;SDS011;60008;50.826;6.896;2023-04-25T06:08:07;12.13;;;3.53;;
72132;SDS011;60008;50.826;6.896;2023-04-25T06:10:53;17.92;;;3.00;;
72132;SDS011;60008;50.826;6.896;2023-04-25T06:13:39;12.75;;;3.38;;
72132;SDS011;60008;50.826;6.896;2023-04-25T06:16:24;11.77;;;2.97;;
72132;SDS011;60008;50.826;6.896;2023-04-25T06:19:10;9.13;;;3.00;;
72132;SDS011;60008;50.826;6.896;2023-04-25T06:21:55;15.77;;;3.25;;
72132;SDS011;60008;50.826;6.896;2023-04-25T06:24:40;10.82;;;3.50;;
72132;SDS011;60008;50.826;6.896;2023-04-25T06:27:25;14.38;;;3.78;;
72132;SDS011;60008;50.826;6.896;2023-04-25T06:30:10;7.13;;;2.83;;
72132;SDS011;60008;50.826;6.896;2023-04-25T06:32:56;15.27;;;3.53;;
72132;SDS011;60008;50.826;6.896;2023-04-25T06:35:41;14.27;;;3.40;;
72132;SDS011;60008;50.826;6.896;2023-04-25T06:38:27;14.80;;;3.33;;
72132;SDS011;60008;50.826;6.896;2023-04-25T06:41:12;17.88;;;3.95;;
72132;SDS011;60008;50.826;6.896;2023-04-25T06:43:57;13.18;;;3.42;;
72132;SDS011;60008;50.826;6.896;2023-04-25T06:46:42;14.20;;;3.50;;
72132;SDS011;60008;50.826;6.896;2023-04-25T06:49:27;11.15;;;3.22;;
72132;SDS011;60008;50.826;6.896;2023-04-25T06:52:12;8.73;;;2.53;;
72132;SDS011;60008;50.826;6.896;2023-04-25T06:54:57;13.63;;;2.42;;
72132;SDS011;60008;50.826;6.896;2023-04-25T06:57:43;12.43;;;2.53;;
72132;SDS011;60008;50.826;6.896;2023-04-25T07:00:28;10.67;;;2.83;;
72132;SDS011;60008;50.826;6.896;2023-04-25T07:03:13;15.18;;;3.53;;
72132;SDS011;60008;50.826;6.896;2023-04-25T07:05:58;12.90;;;4.28;;
72132;SDS011;60008;50.826;6.896;2023-04-25T07:08:43;13.30;;;3.60;;
72132;SDS011;60008;50.826;6.896;2023-04-25T07:11:28;15.13;;;3.45;;
72132;SDS011;60008;50.826;6.896;2023-04-25T07:14:13;9.93;;;3.00;;
72132;SDS011;60008;50.826;6.896;2023-04-25T07:16:58;12.02;;;3.17;;
72132;SDS011;60008;50.826;6.896;2023-04-25T07:19:43;11.40;;;2.80;;
72132;SDS011;60008;50.826;6.896;2023-04-25T07:22:28;14.05;;;2.88;;
72132;SDS011;60008;50.826;6.896;2023-04-25T07:25:13;12.02;;;2.42;;
72132;SDS011;60008;50.826;6.896;2023-04-25T07:27:58;20.33;;;2.87;;
72132;SDS011;60008;50.826;6.896;2023-04-25T07:30:43;11.68;;;2.97;;
72132;SDS011;60008;50.826;6.896;2023-04-25T07:33:28;13.40;;;2.58;;
72132;SDS011;60008;50.826;6.896;2023-04-25T07:36:14;12.45;;;2.88;;
72132;SDS011;60008;50.826;6.896;2023-04-25T07:39:00;11.02;;;3.10;;
72132;SDS011;60008;50.826;6.896;2023-04-25T07:41:44;11.87;;;2.50;;
72132;SDS011;60008;50.826;6.896;2023-04-25T07:44:29;12.30;;;2.40;;
72132;SDS011;60008;50.826;6.896;2023-04-25T07:47:22;9.32;;;2.28;;
72132;SDS011;60008;50.826;6.896;2023-04-25T07:50:07;8.82;;;2.42;;
72132;SDS011;60008;50.826;6.896;2023-04-25T07:52:53;9.63;;;2.47;;
72132;SDS011;60008;50.826;6.896;2023-04-25T07:55:38;11.97;;;2.60;;
72132;SDS011;60008;50.826;6.896;2023-04-25T07:58:24;4.03;;;1.33;;
72132;SDS011;60008;50.826;6.896;2023-04-25T08:01:09;11.60;;;1.83;;
72132;SDS011;60008;50.826;6.896;2023-04-25T08:03:54;8.73;;;1.42;;
72132;SDS011;60008;50.826;6.896;2023-04-25T08:06:39;9.43;;;1.30;;
72132;SDS011;60008;50.826;6.896;2023-04-25T08:09:25;9.70;;;1.57;;
72132;SDS011;60008;50.826;6.896;2023-04-25T08:12:10;10.40;;;1.90;;
72132;SDS011;60008;50.826;6.896;2023-04-25T08:14:55;10.80;;;1.70;;
72132;SDS011;60008;50.826;6.896;2023-04-25T08:17:40;5.18;;;2.00;;
72132;SDS011;60008;50.826;6.896;2023-04-25T08:20:25;10.35;;;1.50;;
72132;SDS011;60008;50.826;6.896;2023-04-25T08:23:10;6.93;;;1.90;;
72132;SDS011;60008;50.826;6.896;2023-04-25T08:25:55;6.80;;;1.30;;
72132;SDS011;60008;50.826;6.896;2023-04-25T08:28:40;7.05;;;1.63;;
72132;SDS011;60008;50.826;6.896;2023-04-25T08:31:25;7.45;;;2.13;;
72132;SDS011;60008;50.826;6.896;2023-04-25T08:34:10;5.22;;;1.90;;
72132;SDS011;60008;50.826;6.896;2023-04-25T08:36:55;6.33;;;2.37;;
72132;SDS011;60008;50.826;6.896;2023-04-25T08:39:40;6.35;;;1.50;;
72132;SDS011;60008;50.826;6.896;2023-04-25T08:42:27;6.93;;;1.58;;
72132;SDS011;60008;50.826;6.896;2023-04-25T08:45:13;5.07;;;1.52;;
72132;SDS011;60008;50.826;6.896;2023-04-25T08:47:58;4.85;;;1.50;;
72132;SDS011;60008;50.826;6.896;2023-04-25T08:50:53;5.97;;;1.30;;
72132;SDS011;60008;50.826;6.896;2023-04-25T08:53:39;11.93;;;2.10;;
72132;SDS011;60008;50.826;6.896;2023-04-25T08:56:27;5.68;;;2.28;;
72132;SDS011;60008;50.826;6.896;2023-04-25T08:59:15;5.93;;;2.40;;
72132;SDS011;60008;50.826;6.896;2023-04-25T09:02:00;10.48;;;2.38;;
72132;SDS011;60008;50.826;6.896;2023-04-25T09:04:45;9.43;;;2.73;;
72132;SDS011;60008;50.826;6.896;2023-04-25T09:07:30;8.68;;;2.10;;
72132;SDS011;60008;50.826;6.896;2023-04-25T09:10:15;9.75;;;2.10;;
72132;SDS011;60008;50.826;6.896;2023-04-25T09:13:07;7.10;;;2.00;;
72132;SDS011;60008;50.826;6.896;2023-04-25T09:15:57;8.68;;;1.95;;
72132;SDS011;60008;50.826;6.896;2023-04-25T09:18:42;10.63;;;2.00;;
72132;SDS011;60008;50.826;6.896;2023-04-25T09:21:32;14.80;;;2.65;;
72132;SDS011;60008;50.826;6.896;2023-04-25T09:24:38;9.05;;;1.98;;
72132;SDS011;60008;50.826;6.896;2023-04-25T09:27:26;6.63;;;2.30;;
72132;SDS011;60008;50.826;6.896;2023-04-25T09:30:11;8.23;;;1.83;;
72132;SDS011;60008;50.826;6.896;2023-04-25T09:33:06;8.93;;;1.70;;
72132;SDS011;60008;50.826;6.896;2023-04-25T09:35:52;5.85;;;1.35;;
72132;SDS011;60008;50.826;6.896;2023-04-25T09:38:41;7.25;;;1.40;;
72132;SDS011;60008;50.826;6.896;2023-04-25T09:41:27;10.40;;;1.70;;
72132;SDS011;60008;50.826;6.896;2023-04-25T09:44:12;6.50;;;1.30;;
72132;SDS011;60008;50.826;6.896;2023-04-25T09:46:57;7.73;;;1.40;;
72132;SDS011;60008;50.826;6.896;2023-04-25T09:49:43;4.28;;;1.05;;
72132;SDS011;60008;50.826;6.896;2023-04-25T09:52:28;4.50;;;1.30;;
72132;SDS011;60008;50.826;6.896;2023-04-25T09:55:13;9.20;;;1.55;;
72132;SDS011;60008;50.826;6.896;2023-04-25T09:58:00;5.93;;;1.42;;
72132;SDS011;60008;50.826;6.896;2023-04-25T10:00:50;9.10;;;2.17;;
72132;SDS011;60008;50.826;6.896;2023-04-25T10:03:37;7.95;;;1.80;;
72132;SDS011;60008;50.826;6.896;2023-04-25T10:06:27;9.93;;;2.08;;
72132;SDS011;60008;50.826;6.896;2023-04-25T10:09:13;10.40;;;2.13;;
72132;SDS011;60008;50.826;6.896;2023-04-25T10:11:59;4.57;;;1.40;;
72132;SDS011;60008;50.826;6.896;2023-04-25T10:14:45;4.20;;;1.20;;
72132;SDS011;60008;50.826;6.896;2023-04-25T10:17:31;8.90;;;1.20;;
72132;SDS011;60008;50.826;6.896;2023-04-25T10:20:17;7.07;;;1.75;;
72132;SDS011;60008;50.826;6.896;2023-04-25T10:23:08;7.97;;;1.50;;
72132;SDS011;60008;50.826;6.896;2023-04-25T10:25:57;11.02;;;1.25;;
72132;SDS011;60008;50.826;6.896;2023-04-25T10:28:56;8.83;;;1.77;;
72132;SDS011;60008;50.826;6.896;2023-04-25T10:31:45;6.30;;;1.73;;
72132;SDS011;60008;50.826;6.896;2023-04-25T10:34:38;6.00;;;1.73;;
72132;SDS011;60008;50.826;6.896;2023-04-25T10:37:33;5.18;;;1.25;;
72132;SDS011;60008;50.826;6.896;2023-04-25T10:40:21;7.72;;;1.80;;
72132;SDS011;60008;50.826;6.896;2023-04-25T10:46:19;4.70;;;1.30;;
72132;SDS011;60008;50.826;6.896;2023-04-25T10:49:08;10.95;;;1.83;;
72132;SDS011;60008;50.826;6.896;2023-04-25T10:52:32;7.95;;;1.40;;
72132;SDS011;60008;50.826;6.896;2023-04-25T10:55:14;5.82;;;1.20;;
72132;SDS011;60008;50.826;6.896;2023-04-25T10:57:59;6.97;;;1.20;;
72132;SDS011;60008;50.826;6.896;2023-04-25T11:00:45;8.05;;;1.40;;
72132;SDS011;60008;50.826;6.896;2023-04-25T11:03:41;5.65;;;1.38;;
72132;SDS011;60008;50.826;6.896;2023-04-25T11:06:37;7.22;;;1.60;;
72132;SDS011;60008;50.826;6.896;2023-04-25T11:09:41;6.00;;;1.55;;
72132;SDS011;60008;50.826;6.896;2023-04-25T11:12:26;6.50;;;1.13;;
72132;SDS011;60008;50.826;6.896;2023-04-25T11:15:11;6.47;;;1.50;;
72132;SDS011;60008;50.826;6.896;2023-04-25T11:17:56;7.40;;;1.70;;
72132;SDS011;60008;50.826;6.896;2023-04-25T11:20:42;7.72;;;1.50;;
72132;SDS011;60008;50.826;6.896;2023-04-25T11:23:28;5.88;;;1.40;;
72132;SDS011;60008;50.826;6.896;2023-04-25T11:26:15;4.03;;;1.40;;
72132;SDS011;60008;50.826;6.896;2023-04-25T11:29:00;6.28;;;1.77;;
72132;SDS011;60008;50.826;6.896;2023-04-25T11:31:45;7.90;;;1.70;;
72132;SDS011;60008;50.826;6.896;2023-04-25T11:34:31;4.78;;;1.08;;
72132;SDS011;60008;50.826;6.896;2023-04-25T11:37:17;3.60;;;0.98;;
72132;SDS011;60008;50.826;6.896;2023-04-25T11:40:02;6.03;;;1.27;;
72132;SDS011;60008;50.826;6.896;2023-04-25T11:42:50;5.00;;;1.00;;
72132;SDS011;60008;50.826;6.896;2023-04-25T11:45:39;4.65;;;0.90;;
72132;SDS011;60008;50.826;6.896;2023-04-25T11:48:24;3.42;;;0.95;;
72132;SDS011;60008;50.826;6.896;2023-04-25T11:51:10;5.18;;;1.02;;
72132;SDS011;60008;50.826;6.896;2023-04-25T11:53:55;4.13;;;1.23;;
72132;SDS011;60008;50.826;6.896;2023-04-25T11:56:43;5.28;;;0.93;;
72132;SDS011;60008;50.826;6.896;2023-04-25T11:59:29;4.50;;;1.10;;
72132;SDS011;60008;50.826;6.896;2023-04-25T12:02:24;6.63;;;1.38;;
72132;SDS011;60008;50.826;6.896;2023-04-25T12:05:11;8.23;;;1.30;;
72132;SDS011;60008;50.826;6.896;2023-04-25T12:08:15;6.83;;;1.57;;
72132;SDS011;60008;50.826;6.896;2023-04-25T12:11:01;6.97;;;1.33;;
72132;SDS011;60008;50.826;6.896;2023-04-25T12:13:46;7.22;;;1.77;;
72132;SDS011;60008;50.826;6.896;2023-04-25T12:16:40;5.95;;;1.13;;
72132;SDS011;60008;50.826;6.896;2023-04-25T12:19:29;5.95;;;1.60;;
72132;SDS011;60008;50.826;6.896;2023-04-25T12:22:19;7.73;;;1.50;;
72132;SDS011;60008;50.826;6.896;2023-04-25T12:25:05;6.75;;;1.63;;
72132;SDS011;60008;50.826;6.896;2023-04-25T12:27:52;9.00;;;1.40;;
72132;SDS011;60008;50.826;6.896;2023-04-25T12:30:53;5.20;;;1.15;;
72132;SDS011;60008;50.826;6.896;2023-04-25T12:33:39;5.18;;;1.30;;
72132;SDS011;60008;50.826;6.896;2023-04-25T12:36:26;3.20;;;1.00;;
72132;SDS011;60008;50.826;6.896;2023-04-25T12:39:17;5.35;;;1.05;;
72132;SDS011;60008;50.826;6.896;2023-04-25T12:42:10;4.20;;;1.30;;
72132;SDS011;60008;50.826;6.896;2023-04-25T12:44:57;5.45;;;1.25;;
72132;SDS011;60008;50.826;6.896;2023-04-25T12:47:42;4.28;;;1.20;;
72132;SDS011;60008;50.826;6.896;2023-04-25T12:50:27;9.43;;;1.23;;
72132;SDS011;60008;50.826;6.896;2023-04-25T12:53:12;5.05;;;1.25;;
72132;SDS011;60008;50.826;6.896;2023-04-25T12:55:57;7.13;;;1.55;;
72132;SDS011;60008;50.826;6.896;2023-04-25T12:58:42;3.10;;;1.00;;
72132;SDS011;60008;50.826;6.896;2023-04-25T13:01:29;4.32;;;1.10;;
72132;SDS011;60008;50.826;6.896;2023-04-25T13:04:14;6.97;;;1.17;;
72132;SDS011;60008;50.826;6.896;2023-04-25T13:07:00;7.50;;;1.13;;
72132;SDS011;60008;50.826;6.896;2023-04-25T13:09:45;4.80;;;1.00;;
72132;SDS011;60008;50.826;6.896;2023-04-25T13:12:30;4.82;;;1.10;;
72132;SDS011;60008;50.826;6.896;2023-04-25T13:15:17;5.03;;;1.05;;
72132;SDS011;60008;50.826;6.896;2023-04-25T13:18:03;3.17;;;1.07;;
72132;SDS011;60008;50.826;6.896;2023-04-25T13:20:50;6.85;;;1.38;;
72132;SDS011;60008;50.826;6.896;2023-04-25T13:23:35;3.63;;;0.98;;
72132;SDS011;60008;50.826;6.896;2023-04-25T13:26:20;5.40;;;1.00;;
72132;SDS011;60008;50.826;6.896;2023-04-25T13:29:05;5.38;;;1.08;;
72132;SDS011;60008;50.826;6.896;2023-04-25T13:31:50;3.93;;;0.90;;
72132;SDS011;60008;50.826;6.896;2023-04-25T13:34:35;5.32;;;1.30;;
72132;SDS011;60008;50.826;6.896;2023-04-25T13:37:20;3.63;;;1.15;;
72132;SDS011;60008;50.826;6.896;2023-04-25T13:40:09;6.05;;;1.23;;
72132;SDS011;60008;50.826;6.896;2023-04-25T13:42:55;4.32;;;1.17;;
72132;SDS011;60008;50.826;6.896;2023-04-25T13:45:41;11.63;;;1.37;;
72132;SDS011;60008;50.826;6.896;2023-04-25T13:48:26;3.75;;;1.40;;
72132;SDS011;60008;50.826;6.896;2023-04-25T13:51:11;5.93;;;1.40;;
72132;SDS011;60008;50.826;6.896;2023-04-25T13:53:56;7.47;;;1.27;;
72132;SDS011;60008;50.826;6.896;2023-04-25T13:56:41;4.15;;;1.15;;
72132;SDS011;60008;50.826;6.896;2023-04-25T13:59:27;8.83;;;1.50;;
72132;SDS011;60008;50.826;6.896;2023-04-25T14:02:12;4.72;;;0.90;;
72132;SDS011;60008;50.826;6.896;2023-04-25T14:04:57;4.20;;;1.17;;
72132;SDS011;60008;50.826;6.896;2023-04-25T14:07:42;4.15;;;0.80;;
72132;SDS011;60008;50.826;6.896;2023-04-25T14:10:27;5.97;;;1.30;;
72132;SDS011;60008;50.826;6.896;2023-04-25T14:13:13;4.33;;;1.13;;
72132;SDS011;60008;50.826;6.896;2023-04-25T14:15:57;4.65;;;1.13;;
72132;SDS011;60008;50.826;6.896;2023-04-25T14:18:42;4.60;;;1.08;;
72132;SDS011;60008;50.826;6.896;2023-04-25T14:21:27;2.78;;;1.05;;
72132;SDS011;60008;50.826;6.896;2023-04-25T14:24:13;6.57;;;1.15;;
72132;SDS011;60008;50.826;6.896;2023-04-25T14:26:58;3.20;;;0.70;;
72132;SDS011;60008;50.826;6.896;2023-04-25T14:29:43;2.95;;;0.90;;
72132;SDS011;60008;50.826;6.896;2023-04-25T14:32:28;5.82;;;1.25;;
72132;SDS011;60008;50.826;6.896;2023-04-25T14:35:13;1.65;;;0.80;;
72132;SDS011;60008;50.826;6.896;2023-04-25T14:37:58;3.10;;;0.70;;
72132;SDS011;60008;50.826;6.896;2023-04-25T14:40:43;2.83;;;0.80;;
72132;SDS011;60008;50.826;6.896;2023-04-25T14:43:28;2.75;;;0.80;;
72132;SDS011;60008;50.826;6.896;2023-04-25T14:46:13;3.10;;;0.82;;
72132;SDS011;60008;50.826;6.896;2023-04-25T14:48:58;2.85;;;0.70;;
72132;SDS011;60008;50.826;6.896;2023-04-25T14:51:43;2.00;;;0.60;;
72132;SDS011;60008;50.826;6.896;2023-04-25T14:54:28;3.20;;;0.70;;
72132;SDS011;60008;50.826;6.896;2023-04-25T14:57:13;4.15;;;0.68;;
72132;SDS011;60008;50.826;6.896;2023-04-25T14:59:58;1.60;;;0.50;;
72132;SDS011;60008;50.826;6.896;2023-04-25T15:02:43;3.05;;;0.68;;
72132;SDS011;60008;50.826;6.896;2023-04-25T15:05:28;2.47;;;0.55;;
72132;SDS011;60008;50.826;6.896;2023-04-25T15:08:13;1.27;;;0.47;;
72132;SDS011;60008;50.826;6.896;2023-04-25T15:10:58;3.42;;;0.60;;
72132;SDS011;60008;50.826;6.896;2023-04-25T15:13:43;3.33;;;1.55;;
72132;SDS011;60008;50.826;6.896;2023-04-25T15:16:28;4.10;;;1.20;;
72132;SDS011;60008;50.826;6.896;2023-04-25T15:19:15;2.97;;;1.10;;
72132;SDS011;60008;50.826;6.896;2023-04-25T15:22:00;2.30;;;0.80;;
72132;SDS011;60008;50.826;6.896;2023-04-25T15:24:46;7.05;;;0.95;;
72132;SDS011;60008;50.826;6.896;2023-04-25T15:27:31;3.17;;;1.08;;
72132;SDS011;60008;50.826;6.896;2023-04-25T15:30:16;2.90;;;0.70;;
72132;SDS011;60008;50.826;6.896;2023-04-25T15:33:02;4.63;;;1.10;;
72132;SDS011;60008;50.826;6.896;2023-04-25T15:35:47;1.73;;;0.50;;
72132;SDS011;60008;50.826;6.896;2023-04-25T15:38:32;2.55;;;1.00;;
72132;SDS011;60008;50.826;6.896;2023-04-25T15:41:17;2.58;;;0.85;;
72132;SDS011;60008;50.826;6.896;2023-04-25T15:44:02;3.22;;;0.90;;
72132;SDS011;60008;50.826;6.896;2023-04-25T15:46:47;5.22;;;1.00;;
72132;SDS011;60008;50.826;6.896;2023-04-25T15:49:32;3.00;;;0.93;;
72132;SDS011;60008;50.826;6.896;2023-04-25T15:52:17;3.83;;;0.98;;
72132;SDS011;60008;50.826;6.896;2023-04-25T15:55:05;2.22;;;0.90;;
72132;SDS011;60008;50.826;6.896;2023-04-25T15:57:51;4.03;;;1.27;;
72132;SDS011;60008;50.826;6.896;2023-04-25T16:00:36;3.45;;;1.00;;
72132;SDS011;60008;50.826;6.896;2023-04-25T16:03:21;3.73;;;0.80;;
72132;SDS011;60008;50.826;6.896;2023-04-25T16:06:08;7.25;;;0.90;;
72132;SDS011;60008;50.826;6.896;2023-04-25T16:08:53;3.80;;;0.68;;
72132;SDS011;60008;50.826;6.896;2023-04-25T16:11:38;2.13;;;0.60;;
72132;SDS011;60008;50.826;6.896;2023-04-25T16:14:23;3.50;;;0.70;;
72132;SDS011;60008;50.826;6.896;2023-04-25T16:17:09;2.50;;;0.70;;
72132;SDS011;60008;50.826;6.896;2023-04-25T16:19:53;6.38;;;0.88;;
72132;SDS011;60008;50.826;6.896;2023-04-25T16:22:40;2.72;;;0.65;;
72132;SDS011;60008;50.826;6.896;2023-04-25T16:25:25;2.88;;;1.00;;
72132;SDS011;60008;50.826;6.896;2023-04-25T16:28:11;3.83;;;1.10;;
72132;SDS011;60008;50.826;6.896;2023-04-25T16:30:56;3.43;;;0.77;;
72132;SDS011;60008;50.826;6.896;2023-04-25T16:33:41;5.07;;;1.48;;
72132;SDS011;60008;50.826;6.896;2023-04-25T16:36:26;3.40;;;1.23;;
72132;SDS011;60008;50.826;6.896;2023-04-25T16:39:11;4.32;;;1.20;;